Time;durP1;ratioP1;P1;durP2;ratioP2;P2;SDS_P1;SDS_P2;PMS_P1;PMS_P2;Temp;Humidity;BMP_temperature;BMP_pressure;BME280_temperature;BME280_humidity;BME280_pressure;Samples;Min_cycle;Max_cycle;Signal;HPM_P1;HPM_P2
2022/01/30 00:00:16;;;;;;;7.33;2.90;;;20.00;43.20;;;;;;5074405;27;88619;-68
2022/01/30 00:02:44;;;;;;;6.23;2.47;;;20.00;43.20;;;;;;5071022;27;90590;-68
2022/01/30 00:05:12;;;;;;;7.17;3.00;;;19.90;43.20;;;;;;5075024;27;88769;-68
2022/01/30 00:07:40;;;;;;;7.20;3.23;;;19.90;43.10;;;;;;5071257;27;89502;-68
2022/01/30 00:10:12;;;;;;;4.90;2.37;;;19.90;43.10;;;;;;5075001;27;88566;-68
2022/01/30 00:12:46;;;;;;;10.33;3.73;;;19.90;43.10;;;;;;5073644;27;90737;-69
2022/01/30 00:15:15;;;;;;;6.67;3.27;;;19.90;43.00;;;;;;5072751;27;90186;-67
2022/01/30 00:17:48;;;;;;;10.53;3.80;;;19.90;43.00;;;;;;5064081;27;88324;-67
2022/01/30 00:20:20;;;;;;;7.03;3.23;;;19.90;43.10;;;;;;5070572;27;88374;-69
2022/01/30 00:22:55;;;;;;;7.00;3.27;;;19.90;43.00;;;;;;5071779;27;89557;-69
2022/01/30 00:25:34;;;;;;;5.93;3.00;;;19.90;43.00;;;;;;5077262;27;90248;-69
2022/01/30 00:28:06;;;;;;;8.03;3.93;;;19.90;43.00;;;;;;5080181;27;89854;-68
2022/01/30 00:30:35;;;;;;;11.07;3.10;;;19.80;43.00;;;;;;5081846;27;88508;-68
2022/01/30 00:33:04;;;;;;;9.00;3.47;;;19.80;42.90;;;;;;5081065;27;89292;-68
2022/01/30 00:35:35;;;;;;;7.27;2.60;;;19.80;43.00;;;;;;5080544;27;88963;-67
2022/01/30 00:38:05;;;;;;;6.20;3.40;;;19.80;42.90;;;;;;5081632;27;88311;-68
2022/01/30 00:40:36;;;;;;;10.53;3.93;;;19.80;42.90;;;;;;5072046;27;88727;-68
2022/01/30 00:43:04;;;;;;;7.07;2.90;;;19.80;42.90;;;;;;5075081;27;89710;-68
2022/01/30 00:45:33;;;;;;;6.50;3.33;;;19.80;42.90;;;;;;5074960;27;89792;-69
2022/01/30 00:48:01;;;;;;;5.83;2.53;;;19.80;42.90;;;;;;5067693;27;88441;-68
2022/01/30 00:50:29;;;;;;;7.67;3.57;;;19.80;42.90;;;;;;5080159;27;88605;-68
2022/01/30 00:52:57;;;;;;;7.20;3.30;;;19.80;42.90;;;;;;5081030;27;88561;-68
2022/01/30 00:55:26;;;;;;;8.63;3.93;;;19.80;42.90;;;;;;5078950;27;90039;-69
2022/01/30 00:57:55;;;;;;;7.17;3.23;;;19.80;42.90;;;;;;5060494;27;88441;-68
2022/01/30 01:00:23;;;;;;;5.93;3.37;;;19.70;43.50;;;;;;5072183;27;88644;-67
2022/01/30 01:02:51;;;;;;;6.13;3.10;;;19.70;42.80;;;;;;5078983;27;90561;-68
2022/01/30 01:05:20;;;;;;;8.60;3.77;;;19.70;42.80;;;;;;5078104;27;90258;-68
2022/01/30 01:07:49;;;;;;;8.40;3.07;;;19.70;42.80;;;;;;5077599;27;88400;-68
2022/01/30 01:10:28;;;;;;;7.37;3.60;;;19.70;42.80;;;;;;5080943;27;88231;-68
2022/01/30 01:24:06;;;;;;;4.50;2.50;;;19.60;42.80;;;;;;5067968;27;90686;-68
2022/01/30 01:26:34;;;;;;;9.43;3.13;;;19.60;42.80;;;;;;5063973;27;89156;-67
2022/01/30 01:29:04;;;;;;;8.83;3.77;;;19.60;42.90;;;;;;5066390;27;88205;-67
2022/01/30 01:31:32;;;;;;;5.93;2.40;;;19.60;42.80;;;;;;5080221;27;88449;-67
2022/01/30 01:34:13;;;;;;;5.10;2.70;;;19.60;42.80;;;;;;5081150;27;90660;-67
2022/01/30 01:36:41;;;;;;;5.73;2.23;;;19.60;42.80;;;;;;5070067;27;90094;-68
2022/01/30 01:39:09;;;;;;;5.17;2.60;;;19.60;42.80;;;;;;5079251;27;88458;-68
2022/01/30 01:41:37;;;;;;;6.97;3.00;;;19.60;42.80;;;;;;5079325;27;88473;-68
2022/01/30 01:44:14;;;;;;;5.07;2.57;;;19.60;42.80;;;;;;5080381;27;90204;-67
2022/01/30 01:46:42;;;;;;;6.57;2.30;;;19.60;42.80;;;;;;5072769;27;88845;-67
2022/01/30 01:49:18;;;;;;;8.80;2.60;;;19.60;42.80;;;;;;5080487;27;88456;-68
2022/01/30 01:51:50;;;;;;;6.10;2.20;;;19.60;42.80;;;;;;5069138;27;90863;-67
2022/01/30 01:54:18;;;;;;;7.00;2.67;;;19.60;42.80;;;;;;5066964;27;90667;-68
2022/01/30 01:56:45;;;;;;;2.63;1.93;;;19.60;42.80;;;;;;5078117;27;90188;-68
2022/01/30 01:59:15;;;;;;;6.43;2.20;;;19.60;42.80;;;;;;5078916;27;88614;-68
2022/01/30 02:01:44;;;;;;;6.17;2.53;;;19.60;42.80;;;;;;5077399;27;88574;-67
2022/01/30 02:04:13;;;;;;;6.97;2.43;;;19.60;42.80;;;;;;5079147;27;90678;-68
2022/01/30 02:06:41;;;;;;;4.73;2.43;;;19.50;42.60;;;;;;5079994;27;88799;-67
2022/01/30 02:09:11;;;;;;;3.30;2.10;;;19.50;42.60;;;;;;5076591;27;91281;-68
2022/01/30 02:11:42;;;;;;;2.57;1.83;;;19.50;42.60;;;;;;5071775;27;88629;-68
2022/01/30 02:14:36;;;;;;;3.00;2.13;;;19.50;42.60;;;;;;5077582;27;90723;-68
2022/01/30 02:25:37;;;;;;;4.33;2.17;;;19.50;42.60;;;;;;5080963;27;89646;-68
2022/01/30 02:28:10;;;;;;;5.13;2.20;;;19.50;42.80;;;;;;5073635;27;90232;-67
2022/01/30 02:30:43;;;;;;;6.03;2.43;;;19.50;42.80;;;;;;5081943;27;88907;-68
2022/01/30 02:33:11;;;;;;;6.83;2.73;;;19.50;42.80;;;;;;5083897;27;88340;-68
2022/01/30 02:35:39;;;;;;;5.13;2.00;;;19.50;42.80;;;;;;5079867;27;90566;-67
2022/01/30 02:38:08;;;;;;;8.93;1.83;;;19.40;42.70;;;;;;5080371;27;88928;-68
2022/01/30 02:40:40;;;;;;;2.97;1.77;;;19.40;42.70;;;;;;5081060;27;89043;-67
2022/01/30 02:43:08;;;;;;;9.00;3.03;;;19.40;42.70;;;;;;5082829;27;88459;-67
2022/01/30 02:45:43;;;;;;;5.47;2.10;;;19.40;42.60;;;;;;5078449;27;90721;-68
2022/01/30 02:48:17;;;;;;;5.97;2.27;;;19.40;42.60;;;;;;5080873;27;89042;-67
2022/01/30 02:50:56;;;;;;;6.10;2.13;;;19.40;42.60;;;;;;5081660;27;88851;-68
2022/01/30 02:53:31;;;;;;;7.07;2.07;;;19.40;42.60;;;;;;5083217;27;88460;-68
2022/01/30 02:55:59;;;;;;;4.47;2.57;;;19.40;42.60;;;;;;5079271;27;90186;-67
2022/01/30 02:58:27;;;;;;;3.50;1.90;;;19.40;42.60;;;;;;5082588;27;89063;-67
2022/01/30 03:00:55;;;;;;;5.73;1.80;;;19.40;42.60;;;;;;5082274;27;89763;-67
2022/01/30 03:03:23;;;;;;;5.60;1.73;;;19.40;42.60;;;;;;5083207;27;88505;-68
2022/01/30 03:05:51;;;;;;;4.07;1.63;;;19.30;42.50;;;;;;5083289;27;90558;-68
2022/01/30 03:08:19;;;;;;;4.17;1.40;;;19.40;42.50;;;;;;5081209;27;89274;-67
2022/01/30 03:10:48;;;;;;;3.73;1.53;;;19.40;42.50;;;;;;5066880;27;89206;-67
2022/01/30 03:13:16;;;;;;;3.87;1.50;;;19.30;42.40;;;;;;5063086;27;88478;-68
2022/01/30 03:15:44;;;;;;;3.97;1.90;;;19.30;42.40;;;;;;5066475;27;90103;-68
2022/01/30 03:18:12;;;;;;;3.63;1.60;;;19.30;42.30;;;;;;5081601;27;90137;-68
2022/01/30 03:20:41;;;;;;;3.97;2.13;;;19.30;42.40;;;;;;5080737;27;89837;-68
2022/01/30 03:23:09;;;;;;;2.17;1.37;;;19.30;42.30;;;;;;5082640;27;88668;-68
2022/01/30 03:25:38;;;;;;;4.30;1.80;;;19.30;42.40;;;;;;5081336;27;92323;-67
2022/01/30 03:28:07;;;;;;;3.80;1.07;;;19.30;42.40;;;;;;5082915;27;91859;-68
2022/01/30 03:30:36;;;;;;;3.50;1.37;;;19.30;42.40;;;;;;5082441;27;88821;-68
2022/01/30 03:33:04;;;;;;;5.33;1.70;;;19.30;42.30;;;;;;5081160;27;88552;-67
2022/01/30 03:35:32;;;;;;;5.30;1.93;;;19.30;42.40;;;;;;5080693;27;90574;-67
2022/01/30 03:38:00;;;;;;;5.07;1.67;;;19.30;42.40;;;;;;5082334;27;90125;-68
2022/01/30 03:40:28;;;;;;;3.37;1.47;;;19.30;42.30;;;;;;5080910;27;88638;-68
2022/01/30 03:42:56;;;;;;;3.90;1.40;;;19.30;42.30;;;;;;5072043;27;88615;-68
2022/01/30 03:45:25;;;;;;;2.67;1.63;;;19.30;42.40;;;;;;5081061;27;89602;-68
2022/01/30 03:47:55;;;;;;;2.93;1.27;;;19.30;42.40;;;;;;5074235;27;90394;-68
2022/01/30 03:50:24;;;;;;;3.30;1.23;;;19.30;42.30;;;;;;5079053;27;88620;-67
2022/01/30 03:52:52;;;;;;;3.43;1.80;;;19.20;42.30;;;;;;5081590;27;88619;-68
2022/01/30 03:55:20;;;;;;;3.40;1.57;;;19.20;42.30;;;;;;5064816;27;89535;-68
2022/01/30 03:57:48;;;;;;;5.03;1.37;;;19.20;42.20;;;;;;5071861;27;90164;-68
2022/01/30 04:00:16;;;;;;;5.27;1.40;;;19.20;42.30;;;;;;5077386;27;88574;-67
2022/01/30 04:02:45;;;;;;;2.27;0.97;;;19.20;42.20;;;;;;5081866;27;89606;-68
2022/01/30 04:05:14;;;;;;;6.10;1.37;;;19.20;42.10;;;;;;5082209;27;89339;-68
2022/01/30 04:07:42;;;;;;;5.27;1.30;;;19.20;42.10;;;;;;5079086;27;90158;-68
2022/01/30 04:10:11;;;;;;;3.13;0.97;;;19.20;42.10;;;;;;5061021;27;88870;-67
2022/01/30 04:12:39;;;;;;;3.37;1.30;;;19.20;42.10;;;;;;5073470;27;88637;-67
2022/01/30 04:15:09;;;;;;;8.07;1.23;;;19.20;42.10;;;;;;5080174;27;89528;-67
2022/01/30 04:17:37;;;;;;;8.00;1.00;;;19.20;42.10;;;;;;5081872;27;89201;-68
2022/01/30 04:20:08;;;;;;;1.13;0.93;;;19.20;42.00;;;;;;5081153;27;88249;-67
2022/01/30 04:22:36;;;;;;;10.67;1.03;;;19.20;42.10;;;;;;5072629;27;88673;-67
2022/01/30 04:25:04;;;;;;;1.97;0.83;;;19.20;42.00;;;;;;5080770;27;89582;-67
2022/01/30 04:27:32;;;;;;;2.80;1.27;;;19.20;42.00;;;;;;5081012;27;89057;-67
2022/01/30 04:30:00;;;;;;;3.30;0.80;;;19.20;42.00;;;;;;5081165;27;88329;-67
2022/01/30 04:32:29;;;;;;;4.03;1.10;;;19.20;42.00;;;;;;5082312;27;88251;-69
2022/01/30 04:34:59;;;;;;;1.63;0.87;;;19.10;42.00;;;;;;5067973;27;89329;-67
2022/01/30 04:37:46;;;;;;;2.30;0.70;;;19.10;42.00;;;;;;5079158;27;89235;-68
2022/01/30 04:40:41;;;;;;;2.10;1.10;;;19.10;42.00;;;;;;5081308;27;88657;-68
2022/01/30 04:57:36;;;;;;;2.20;0.90;;;19.00;41.80;;;;;;5001118;28;93307;-68
2022/01/30 05:00:20;;;;;;;4.13;0.90;;;19.00;41.80;;;;;;5078048;27;88930;-68
2022/01/30 05:02:55;;;;;;;2.27;0.90;;;19.00;41.90;;;;;;5080758;27;88404;-68
2022/01/30 05:05:42;;;;;;;2.13;0.90;;;19.00;41.90;;;;;;5079967;27;88490;-67
2022/01/30 05:08:11;;;;;;;2.87;1.13;;;19.00;41.90;;;;;;5080879;27;90653;-68
2022/01/30 05:10:41;;;;;;;4.97;1.23;;;19.00;41.80;;;;;;5080797;27;89069;-67
2022/01/30 05:13:13;;;;;;;7.60;1.17;;;19.00;41.90;;;;;;5080982;27;88776;-67
2022/01/30 05:15:43;;;;;;;4.63;1.00;;;19.00;41.90;;;;;;5066437;27;88618;-67
2022/01/30 05:18:11;;;;;;;4.40;1.23;;;19.00;41.90;;;;;;5069955;27;90958;-68
2022/01/30 05:20:40;;;;;;;5.13;0.87;;;19.00;41.80;;;;;;5076532;27;89097;-68
2022/01/30 05:23:09;;;;;;;1.43;0.83;;;19.00;41.80;;;;;;5081440;27;88501;-67
2022/01/30 05:25:38;;;;;;;2.63;1.03;;;19.00;41.80;;;;;;5079833;27;88650;-68
2022/01/30 05:28:09;;;;;;;3.90;0.93;;;19.00;41.80;;;;;;5080478;27;89341;-68
2022/01/30 05:30:37;;;;;;;6.10;1.10;;;19.00;41.80;;;;;;5080319;27;90058;-67
2022/01/30 05:33:05;;;;;;;2.57;1.17;;;19.00;41.80;;;;;;5078046;27;88569;-68
2022/01/30 05:35:34;;;;;;;3.43;1.10;;;19.00;41.80;;;;;;5064749;27;88628;-68
2022/01/30 05:38:03;;;;;;;2.97;0.90;;;19.00;41.80;;;;;;5079374;27;90634;-68
2022/01/30 05:40:31;;;;;;;5.60;0.90;;;19.00;41.80;;;;;;5080579;27;88968;-68
2022/01/30 05:42:59;;;;;;;4.73;1.03;;;19.00;41.80;;;;;;5079223;27;88400;-68
2022/01/30 05:45:33;;;;;;;4.20;1.37;;;19.00;41.80;;;;;;5079520;27;88669;-67
2022/01/30 05:48:05;;;;;;;2.97;1.10;;;19.00;41.80;;;;;;5080492;27;89177;-68
2022/01/30 05:50:33;;;;;;;3.20;0.90;;;19.00;41.80;;;;;;5079869;27;88906;-68
2022/01/30 05:53:01;;;;;;;2.47;0.80;;;19.00;41.80;;;;;;5080455;27;88376;-68
2022/01/30 05:55:31;;;;;;;3.60;1.13;;;19.00;41.80;;;;;;5078976;27;89047;-67
2022/01/30 05:57:59;;;;;;;3.80;0.77;;;19.00;41.80;;;;;;5078999;27;90173;-67
2022/01/30 06:00:28;;;;;;;3.30;0.80;;;18.90;41.70;;;;;;5079347;27;89166;-67
2022/01/30 06:02:56;;;;;;;3.03;0.83;;;19.00;41.80;;;;;;5079219;27;88694;-68
2022/01/30 06:05:25;;;;;;;2.90;0.70;;;18.90;41.70;;;;;;5080076;27;88726;-68
2022/01/30 06:07:55;;;;;;;4.47;1.20;;;18.90;41.70;;;;;;5078423;27;89913;-67
2022/01/30 06:10:25;;;;;;;2.27;0.80;;;18.90;41.70;;;;;;5078361;27;89395;-68
2022/01/30 06:12:53;;;;;;;2.13;0.80;;;18.90;41.70;;;;;;5078924;27;88285;-67
2022/01/30 06:15:21;;;;;;;7.20;1.03;;;18.90;41.70;;;;;;5079995;27;89924;-68
2022/01/30 06:17:50;;;;;;;4.83;0.80;;;18.90;41.70;;;;;;5079593;27;89825;-67
2022/01/30 06:20:18;;;;;;;1.33;0.83;;;18.90;42.40;;;;;;5078498;27;88701;-68
2022/01/30 06:22:46;;;;;;;0.73;0.73;;;18.90;41.80;;;;;;5075003;27;89844;-67
2022/01/30 06:25:15;;;;;;;2.77;0.67;;;18.90;41.70;;;;;;5079465;27;88586;-67
2022/01/30 06:27:42;;;;;;;3.07;0.90;;;18.90;41.80;;;;;;5078093;27;89588;-67
2022/01/30 06:30:11;;;;;;;1.03;0.70;;;18.90;41.90;;;;;;5080209;27;90147;-68
2022/01/30 06:32:39;;;;;;;3.07;1.37;;;18.90;41.80;;;;;;5079428;27;88388;-68
2022/01/30 06:35:10;;;;;;;3.03;1.00;;;18.90;41.80;;;;;;5079450;27;88382;-68
2022/01/30 06:37:38;;;;;;;1.70;0.80;;;18.90;41.90;;;;;;5074704;27;89722;-68
2022/01/30 06:40:06;;;;;;;1.70;0.97;;;18.90;41.80;;;;;;5078269;27;90101;-67
2022/01/30 06:42:35;;;;;;;2.00;0.83;;;18.90;41.90;;;;;;5079924;27;88487;-67
2022/01/30 06:45:02;;;;;;;1.13;0.80;;;18.80;41.70;;;;;;5078343;27;88633;-68
2022/01/30 06:47:31;;;;;;;5.33;1.23;;;18.80;41.80;;;;;;5078167;27;89709;-67
2022/01/30 06:49:59;;;;;;;2.67;0.93;;;18.90;41.80;;;;;;5079809;27;90036;-67
2022/01/30 06:52:28;;;;;;;5.07;1.00;;;18.90;41.80;;;;;;5076020;27;88939;-68
2022/01/30 06:54:56;;;;;;;1.17;0.77;;;18.80;41.70;;;;;;5079372;27;88630;-67
2022/01/30 06:57:24;;;;;;;4.50;1.43;;;18.90;41.70;;;;;;5079238;27;88696;-68
2022/01/30 06:59:52;;;;;;;5.67;0.90;;;18.90;41.70;;;;;;5100439;27;90654;-67
2022/01/30 07:02:20;;;;;;;3.87;0.90;;;18.80;41.70;;;;;;5083067;27;88371;-68
2022/01/30 07:04:49;;;;;;;1.90;0.63;;;18.80;41.70;;;;;;5082801;27;88529;-68
2022/01/30 07:07:17;;;;;;;5.17;0.93;;;18.80;41.70;;;;;;5072875;27;90617;-68
2022/01/30 07:09:46;;;;;;;3.77;0.90;;;18.80;41.70;;;;;;5078549;27;90485;-67
2022/01/30 07:12:14;;;;;;;1.00;0.87;;;18.80;41.70;;;;;;5079782;27;88761;-67
2022/01/30 07:14:42;;;;;;;3.40;0.97;;;18.80;41.70;;;;;;5078605;27;88304;-67
2022/01/30 07:17:10;;;;;;;2.63;1.03;;;18.80;41.70;;;;;;5082354;27;89420;-67
2022/01/30 07:19:38;;;;;;;2.73;0.97;;;18.80;41.60;;;;;;5082335;27;89344;-67
2022/01/30 07:22:06;;;;;;;2.03;0.77;;;18.80;41.60;;;;;;5065375;27;88708;-68
2022/01/30 07:24:34;;;;;;;2.03;0.90;;;18.80;41.60;;;;;;5063660;27;88494;-67
2022/01/30 07:27:04;;;;;;;4.00;0.60;;;18.80;41.60;;;;;;5076800;27;89847;-68
2022/01/30 07:29:32;;;;;;;6.13;1.03;;;18.80;41.70;;;;;;5081837;27;89065;-68
2022/01/30 07:32:00;;;;;;;0.77;0.50;;;18.80;41.70;;;;;;5082616;27;88745;-67
2022/01/30 07:34:28;;;;;;;2.53;1.07;;;18.80;41.70;;;;;;5081296;27;88618;-71
2022/01/30 07:36:57;;;;;;;3.30;1.07;;;18.70;41.60;;;;;;5080965;27;89549;-67
2022/01/30 07:39:28;;;;;;;2.30;1.03;;;18.70;41.60;;;;;;5070827;27;89010;-70
2022/01/30 07:41:56;;;;;;;3.73;0.70;;;18.80;41.70;;;;;;5068215;27;88909;-68
2022/01/30 07:44:25;;;;;;;4.40;1.33;;;18.80;41.70;;;;;;5082106;27;88397;-67
2022/01/30 07:46:53;;;;;;;2.40;1.07;;;18.70;41.60;;;;;;5080649;27;89625;-70
2022/01/30 07:49:21;;;;;;;3.50;0.90;;;18.70;41.60;;;;;;5080183;27;89083;-70
2022/01/30 07:51:49;;;;;;;3.00;1.27;;;18.70;41.60;;;;;;5080409;27;88358;-69
2022/01/30 07:54:17;;;;;;;2.80;1.27;;;18.70;41.60;;;;;;5081612;27;89244;-69
2022/01/30 07:56:45;;;;;;;2.07;0.90;;;18.70;41.70;;;;;;5081893;27;89684;-69
2022/01/30 07:59:13;;;;;;;2.70;0.77;;;18.70;41.70;;;;;;5081856;27;88965;-69
2022/01/30 08:01:46;;;;;;;3.47;0.80;;;18.70;41.70;;;;;;5082878;27;89182;-70
2022/01/30 08:04:15;;;;;;;3.63;1.30;;;18.70;41.70;;;;;;5080549;27;88444;-68
2022/01/30 08:06:43;;;;;;;2.43;0.90;;;18.70;41.70;;;;;;5081177;27;89646;-69
2022/01/30 08:09:11;;;;;;;4.13;0.93;;;18.70;41.70;;;;;;5082622;27;90115;-69
2022/01/30 08:11:39;;;;;;;3.67;1.07;;;18.70;41.70;;;;;;5081953;27;89588;-69
2022/01/30 08:14:06;;;;;;;4.60;1.03;;;18.70;41.70;;;;;;5080915;27;88621;-69
2022/01/30 08:16:34;;;;;;;2.97;0.43;;;18.80;41.90;;;;;;5081004;27;89518;-69
2022/01/30 08:19:04;;;;;;;2.40;0.57;;;18.80;41.90;;;;;;5080705;27;88971;-69
2022/01/30 08:21:32;;;;;;;2.20;0.77;;;18.80;41.90;;;;;;5082097;27;88801;-69
2022/01/30 08:24:00;;;;;;;2.93;1.13;;;18.70;41.80;;;;;;5081781;27;88641;-69
2022/01/30 08:26:28;;;;;;;4.53;1.00;;;18.70;41.80;;;;;;5066436;27;89626;-69
2022/01/30 08:28:56;;;;;;;3.60;0.87;;;18.80;41.90;;;;;;5079772;27;90082;-69
2022/01/30 08:31:24;;;;;;;3.70;0.70;;;18.80;41.90;;;;;;5081492;27;88426;-69
2022/01/30 08:33:52;;;;;;;3.93;1.40;;;18.70;42.50;;;;;;5081261;27;88454;-69
2022/01/30 08:36:22;;;;;;;2.13;1.17;;;18.80;41.90;;;;;;5080394;27;90494;-69
2022/01/30 08:38:49;;;;;;;3.37;0.70;;;18.70;41.90;;;;;;5081023;27;92087;-69
2022/01/30 08:41:17;;;;;;;1.17;1.00;;;18.70;41.90;;;;;;5078916;27;88535;-69
2022/01/30 08:43:45;;;;;;;2.27;0.90;;;18.70;41.90;;;;;;5080913;27;90311;-68
2022/01/30 08:46:15;;;;;;;4.10;1.10;;;18.70;41.90;;;;;;5079839;27;89580;-69
2022/01/30 08:48:43;;;;;;;1.33;0.60;;;18.70;41.90;;;;;;5080852;27;90150;-69
2022/01/30 08:51:11;;;;;;;3.27;1.30;;;18.70;41.90;;;;;;5080789;27;90295;-69
2022/01/30 08:53:41;;;;;;;2.17;1.20;;;18.70;41.90;;;;;;5081452;27;88689;-69
2022/01/30 08:56:09;;;;;;;2.23;1.10;;;18.70;41.90;;;;;;5080081;27;89504;-70
2022/01/30 08:58:37;;;;;;;5.60;1.40;;;18.70;41.90;;;;;;5078700;27;89113;-70
2022/01/30 09:01:05;;;;;;;3.90;1.53;;;18.70;41.90;;;;;;5080134;27;88420;-70
2022/01/30 09:03:33;;;;;;;1.93;1.00;;;18.70;41.90;;;;;;5080393;27;88448;-69
2022/01/30 09:06:01;;;;;;;1.90;0.60;;;18.70;41.90;;;;;;5080215;27;89502;-69
2022/01/30 09:08:30;;;;;;;2.23;0.97;;;18.70;41.90;;;;;;5081115;27;89065;-69
2022/01/30 09:10:59;;;;;;;2.37;0.90;;;18.70;41.90;;;;;;5080497;27;88381;-69
2022/01/30 09:13:27;;;;;;;4.63;1.00;;;18.70;42.00;;;;;;5080996;27;88573;-69
2022/01/30 09:15:57;;;;;;;1.73;0.80;;;18.70;41.90;;;;;;5080887;27;90610;-68
2022/01/30 09:18:26;;;;;;;5.53;1.27;;;18.70;41.90;;;;;;5071200;27;90002;-69
2022/01/30 09:20:54;;;;;;;4.13;1.10;;;18.70;41.90;;;;;;5066707;27;89562;-69
2022/01/30 09:23:22;;;;;;;3.80;1.00;;;18.70;42.50;;;;;;5075117;27;88620;-69
2022/01/30 09:25:50;;;;;;;2.20;0.80;;;18.70;41.90;;;;;;5079674;27;88381;-69
2022/01/30 09:28:20;;;;;;;2.87;1.03;;;18.70;42.60;;;;;;5081408;27;90062;-69
2022/01/30 09:30:48;;;;;;;3.87;1.27;;;18.70;42.00;;;;;;5080306;27;89539;-68
2022/01/30 09:33:15;;;;;;;1.97;1.00;;;18.80;42.00;;;;;;5080203;27;88610;-69
2022/01/30 09:35:43;;;;;;;4.50;1.03;;;18.70;42.00;;;;;;5080206;27;89596;-69
2022/01/30 09:38:11;;;;;;;2.07;0.80;;;18.80;42.70;;;;;;5074223;27;88739;-69
2022/01/30 09:40:39;;;;;;;2.67;0.97;;;18.80;42.00;;;;;;5060151;27;91011;-69
2022/01/30 09:43:07;;;;;;;5.10;1.00;;;18.80;42.00;;;;;;5077437;27;88627;-69
2022/01/30 09:45:37;;;;;;;1.97;0.90;;;18.70;42.00;;;;;;5080157;27;89582;-69
2022/01/30 09:48:05;;;;;;;1.13;1.00;;;18.80;42.00;;;;;;5067374;27;89042;-69
2022/01/30 09:50:34;;;;;;;4.40;1.13;;;18.80;42.00;;;;;;5078906;27;89152;-69
2022/01/30 09:53:01;;;;;;;2.03;1.10;;;18.70;41.90;;;;;;5074822;27;88642;-69
2022/01/30 09:55:29;;;;;;;1.40;1.00;;;18.80;41.90;;;;;;5080022;27;89728;-69
2022/01/30 09:57:57;;;;;;;4.87;0.80;;;18.70;41.90;;;;;;5079991;27;89215;-69
2022/01/30 10:00:25;;;;;;;2.87;0.97;;;18.70;41.90;;;;;;5080723;27;88492;-68
2022/01/30 10:02:55;;;;;;;3.57;1.03;;;18.70;41.90;;;;;;5068458;27;88548;-69
2022/01/30 10:05:23;;;;;;;1.70;1.00;;;18.70;41.80;;;;;;5073558;27;90124;-69
2022/01/30 10:07:53;;;;;;;5.77;0.90;;;18.80;41.90;;;;;;5079839;27;90116;-69
2022/01/30 10:10:24;;;;;;;4.60;0.97;;;18.70;41.80;;;;;;5080404;27;88306;-69
2022/01/30 10:13:09;;;;;;;6.67;1.43;;;18.70;41.80;;;;;;5077868;27;89364;-69
2022/01/30 10:15:51;;;;;;;5.43;1.13;;;18.70;41.90;;;;;;5079390;27;90017;-69
2022/01/30 10:18:21;;;;;;;4.47;1.03;;;18.70;41.90;;;;;;5080288;27;89021;-69
2022/01/30 10:20:49;;;;;;;4.03;1.20;;;18.70;41.80;;;;;;5073715;27;89687;-69
2022/01/30 10:23:17;;;;;;;5.83;1.70;;;18.70;41.90;;;;;;5067544;27;88356;-68
2022/01/30 10:25:52;;;;;;;5.23;1.50;;;18.70;41.90;;;;;;5059840;27;90597;-70
2022/01/30 10:28:21;;;;;;;4.00;1.40;;;18.70;41.90;;;;;;5076291;27;89214;-69
2022/01/30 10:30:50;;;;;;;3.67;1.67;;;18.70;41.90;;;;;;5059660;27;88900;-69
2022/01/30 10:33:19;;;;;;;4.53;2.33;;;18.70;41.90;;;;;;5075963;27;88387;-69
2022/01/30 10:35:56;;;;;;;2.70;1.37;;;18.70;42.50;;;;;;5077744;27;89383;-70
2022/01/30 10:38:25;;;;;;;4.03;1.93;;;18.70;41.90;;;;;;5078653;27;89567;-70
2022/01/30 10:40:58;;;;;;;3.63;1.47;;;18.70;41.90;;;;;;5082894;27;89230;-70
2022/01/30 10:43:54;;;;;;;2.43;1.43;;;18.70;41.90;;;;;;5082767;27;89796;-69
2022/01/30 10:46:23;;;;;;;4.47;1.70;;;18.70;41.90;;;;;;5082843;27;89551;-69
2022/01/30 10:48:53;;;;;;;3.03;1.90;;;18.70;41.80;;;;;;5083563;27;90016;-68
2022/01/30 10:51:22;;;;;;;4.57;2.07;;;18.70;41.80;;;;;;5076956;27;88856;-68
2022/01/30 10:53:51;;;;;;;5.57;2.37;;;18.70;41.80;;;;;;5063568;27;88435;-69
2022/01/30 10:56:20;;;;;;;4.10;2.80;;;18.70;41.80;;;;;;5083013;27;89487;-69
2022/01/30 10:59:12;;;;;;;7.40;2.33;;;18.70;41.70;;;;;;5071863;27;90103;-69
2022/01/30 11:01:40;;;;;;;4.17;1.90;;;18.70;41.80;;;;;;5082078;27;88885;-69
2022/01/30 11:04:23;;;;;;;5.63;1.90;;;18.70;41.70;;;;;;5083223;27;88413;-70
2022/01/30 11:06:53;;;;;;;7.60;2.53;;;18.70;41.70;;;;;;5082824;27;89545;-69
2022/01/30 11:09:25;;;;;;;5.23;1.80;;;18.70;41.70;;;;;;5079606;27;90157;-69
2022/01/30 11:11:57;;;;;;;4.93;2.30;;;18.70;41.70;;;;;;5083083;27;89733;-69
2022/01/30 11:14:35;;;;;;;6.93;2.80;;;18.70;41.70;;;;;;5081317;27;88591;-69
2022/01/30 11:17:05;;;;;;;3.60;2.03;;;18.70;41.70;;;;;;5069735;27;89680;-69
2022/01/30 11:19:34;;;;;;;6.20;2.63;;;18.70;41.60;;;;;;5081798;27;90488;-68
2022/01/30 11:22:05;;;;;;;5.90;2.13;;;18.70;41.70;;;;;;5082681;27;88864;-69
2022/01/30 11:24:44;;;;;;;6.30;2.23;;;18.70;41.60;;;;;;5081427;27;88745;-69
2022/01/30 11:27:12;;;;;;;4.23;1.83;;;18.70;41.60;;;;;;5080909;27;89683;-69
2022/01/30 11:29:40;;;;;;;9.53;2.30;;;18.70;41.60;;;;;;5083194;27;90216;-69
2022/01/30 11:32:09;;;;;;;2.97;2.17;;;18.90;41.90;;;;;;5082521;27;88416;-69
2022/01/30 11:34:38;;;;;;;5.03;2.37;;;18.70;41.70;;;;;;5070117;27;88593;-69
2022/01/30 11:37:09;;;;;;;6.33;2.23;;;18.70;41.70;;;;;;5080783;27;89631;-69
2022/01/30 11:39:38;;;;;;;9.43;2.80;;;18.80;41.80;;;;;;5081443;27;89056;-68
2022/01/30 11:42:08;;;;;;;4.43;3.00;;;18.70;41.80;;;;;;5081245;27;89016;-68
2022/01/30 11:44:36;;;;;;;9.37;3.60;;;18.70;41.90;;;;;;5080647;27;88608;-69
2022/01/30 11:47:23;;;;;;;8.13;3.70;;;18.70;41.90;;;;;;5081649;27;90776;-69
2022/01/30 11:49:55;;;;;;;9.57;3.63;;;18.70;42.00;;;;;;5078935;27;90172;-69
2022/01/30 11:52:58;;;;;;;8.90;4.40;;;18.70;42.00;;;;;;5070107;27;88469;-68
2022/01/30 11:55:57;;;;;;;7.70;3.97;;;18.70;42.00;;;;;;5063079;27;88590;-69
2022/01/30 11:58:39;;;;;;;12.40;3.97;;;18.70;42.10;;;;;;5032422;27;90700;-69
2022/01/30 12:01:14;;;;;;;6.07;3.50;;;18.70;42.10;;;;;;5082836;27;89101;-68
2022/01/30 12:03:53;;;;;;;9.53;3.90;;;18.70;42.10;;;;;;5081511;27;88395;-68
2022/01/30 12:06:35;;;;;;;8.93;4.23;;;18.70;42.10;;;;;;5082874;27;88629;-68
2022/01/30 12:09:19;;;;;;;5.37;4.07;;;18.70;42.20;;;;;;5083365;27;89708;-69
2022/01/30 12:12:06;;;;;;;10.90;5.17;;;18.80;42.30;;;;;;5081128;27;89438;-68
2022/01/30 12:14:52;;;;;;;12.37;5.63;;;18.70;42.20;;;;;;5074638;27;88706;-68
2022/01/30 12:17:50;;;;;;;10.33;5.40;;;18.80;42.30;;;;;;5071513;27;88794;-69
2022/01/30 12:20:22;;;;;;;10.43;6.30;;;18.80;42.40;;;;;;5068659;27;90770;-68
2022/01/30 12:22:50;;;;;;;10.00;6.10;;;18.80;42.30;;;;;;5079062;27;88505;-69
2022/01/30 12:25:34;;;;;;;11.90;6.00;;;18.80;42.30;;;;;;5072497;27;89439;-69
2022/01/30 12:28:04;;;;;;;12.57;6.13;;;18.80;42.30;;;;;;5078693;27;88636;-69
2022/01/30 12:30:33;;;;;;;11.53;5.47;;;18.80;42.30;;;;;;5080673;27;89762;-69
2022/01/30 12:33:01;;;;;;;10.77;5.33;;;18.80;42.40;;;;;;5080440;27;89028;-69
2022/01/30 12:35:30;;;;;;;10.77;6.27;;;18.80;42.40;;;;;;5070611;27;89483;-68
2022/01/30 12:37:58;;;;;;;10.93;6.37;;;18.80;42.40;;;;;;5082018;27;88642;-69
2022/01/30 12:40:27;;;;;;;15.20;8.53;;;18.80;42.50;;;;;;5080500;27;89485;-69
2022/01/30 12:42:55;;;;;;;14.33;8.40;;;18.80;42.50;;;;;;5081274;27;89440;-68
2022/01/30 12:45:23;;;;;;;15.43;8.50;;;18.80;42.50;;;;;;5080056;27;88377;-69
2022/01/30 12:47:52;;;;;;;14.13;7.23;;;18.80;42.60;;;;;;5080880;27;88622;-69
2022/01/30 12:50:21;;;;;;;12.50;7.90;;;18.80;42.60;;;;;;5081491;27;90054;-69
2022/01/30 12:52:51;;;;;;;15.37;8.27;;;18.80;42.60;;;;;;5081710;27;90001;-69
2022/01/30 12:55:19;;;;;;;13.57;8.20;;;18.80;42.60;;;;;;5080881;27;88657;-69
2022/01/30 12:57:49;;;;;;;14.70;7.97;;;18.80;42.70;;;;;;5081680;27;88531;-69
2022/01/30 13:00:18;;;;;;;17.00;8.67;;;18.80;42.70;;;;;;5079720;27;90876;-69
2022/01/30 13:02:57;;;;;;;14.00;8.43;;;18.80;42.70;;;;;;5081201;27;91378;-69
2022/01/30 13:05:26;;;;;;;14.03;7.97;;;18.80;42.80;;;;;;5081364;27;89378;-69
2022/01/30 13:07:54;;;;;;;13.90;6.30;;;18.80;42.80;;;;;;5083431;27;88414;-69
2022/01/30 13:10:23;;;;;;;16.50;7.47;;;18.80;42.80;;;;;;5080419;27;89186;-69
2022/01/30 13:12:52;;;;;;;13.20;7.83;;;18.80;42.90;;;;;;5067924;27;89502;-69
2022/01/30 13:15:27;;;;;;;14.07;7.23;;;18.90;43.00;;;;;;5081631;27;88261;-66
2022/01/30 13:17:55;;;;;;;16.57;9.00;;;18.90;43.00;;;;;;5080110;27;88686;-69
2022/01/30 13:20:24;;;;;;;16.80;9.73;;;18.90;43.10;;;;;;5079431;27;89510;-69
2022/01/30 13:22:52;;;;;;;15.13;10.03;;;18.90;43.10;;;;;;5080333;27;88950;-70
2022/01/30 13:25:21;;;;;;;14.07;8.83;;;18.90;43.10;;;;;;5078791;27;89010;-69
2022/01/30 13:27:50;;;;;;;17.63;9.83;;;18.90;43.10;;;;;;5080532;27;88566;-68
2022/01/30 13:30:24;;;;;;;19.30;10.53;;;18.90;43.10;;;;;;5080490;27;90556;-69
2022/01/30 13:32:52;;;;;;;17.33;9.83;;;18.90;43.10;;;;;;5079536;27;91108;-70
2022/01/30 13:35:22;;;;;;;19.27;11.13;;;19.00;43.20;;;;;;5083399;27;88526;-69